メインページ
METAR-TAF:

METAR-TAF

空港 :

ドーハ国際空港

ドーハ, カタール

緯度: 25-15-40N, 経度: 051-33-54E, 海抜: 11m

現時点の気象観測

当レポートは59分前の04:00(UTC)に作成
東/南東の風 10kt
気温 27°C
湿度 70%
気圧 1005 hPa
視程10km以上
高度4000ftの雲はほとんどない
高度10000ftの雲は散在している
高度14000ftの千切れ雲あり

METAR: OTBD 220400Z 12010KT 9999 FEW040 SCT100 BKN140 27/21 Q1005 NOSIG

時間: 07:59 (04:59 UTC)

予報

予報は20日の 18時(UTC)から 21日の 24時(UTC)まで有効
北/北東の風 10kt
視程: 9000m
高度3000ftの雲はほとんどない
高度10000ftの雲は散在している
確率 30% :
20日の 18時(UTC)から 21日の 00時(UTC)まで一時的に
視程: 7000m
小雨
21日の 09時(UTC)から 22日の 00時(UTC)まで一時的に
視程: 7000m
高度3500ftの雲は散在している
小雨
確率 40% :
21日の 09時(UTC)から 21日の 20時(UTC)まで一時的に
視程: 5000m
高度3000ftの雲はほとんどない, 積乱雲.
高度10000ftの千切れ雲あり
激しい雷雨, 小雨

TAF: OTBD 2018/2124 03010KT 9000 FEW030 SCT100 PROB30 TEMPO 2018/2100 7000 -RA TEMPO 2109/2200 7000 -RA SCT035 PROB40 TEMPO 2109/2120 5000 -TSRA FEW030CB BKN100

4,000以上の空港の気象観測と天気予報(METAR報とTAF報)

利用可能な観測所は地図上に黄色い丸と赤い丸で示す。

丸の上にカーソルを重ねると観測所名を参照できる。

次にクリックすると気象観測と天気予報を参照できる。

マップの切り替え:黒色「×」印の緑ボタンをクリックして拡大、「-」印の緑ボタンをクリックして縮小、緑色の三角印をクリックして隣りの地図に切り替え


METAR-TAF: